Time;durP1;ratioP1;P1;durP2;ratioP2;P2;SDS_P1;SDS_P2;PMS_P1;PMS_P2;Temp;Humidity;BMP_temperature;BMP_pressure;BME280_temperature;BME280_humidity;BME280_pressure;Samples;Min_cycle;Max_cycle;Signal;HPM_P1;HPM_P2
2022/06/23 00:00:29;;;;;;;;;;;;;;;24.09;49.34;101019.59;7278232;19;152647;-80
2022/06/23 00:02:57;;;;;;;;;;;;;;;24.10;49.06;101022.09;7285752;19;152247;-80
2022/06/23 00:05:25;;;;;;;;;;;;;;;24.11;48.96;101020.13;7281459;19;152570;-82
2022/06/23 00:07:56;;;;;;;;;;;;;;;24.12;49.31;101016.94;7282445;19;155650;-81
2022/06/23 00:10:31;;;;;;;;;;;;;;;24.11;49.49;101018.13;7283523;19;152819;-80
2022/06/23 00:12:58;;;;;;;;;;;;;;;24.11;49.40;101015.31;7290108;19;152606;-81
2022/06/23 00:15:35;;;;;;;;;;;;;;;24.14;49.36;101014.63;7280537;19;153354;-80
2022/06/23 00:18:04;;;;;;;;;;;;;;;24.13;49.20;101015.78;7282974;19;153328;-80
2022/06/23 00:20:37;;;;;;;;;;;;;;;24.14;49.41;101019.44;7281787;19;153948;-81
2022/06/23 00:23:10;;;;;;;;;;;;;;;24.14;49.43;101020.28;7285965;19;152258;-81
2022/06/23 00:25:48;;;;;;;;;;;;;;;24.20;49.58;101013.34;7284569;19;152377;-81
2022/06/23 00:28:18;;;;;;;;;;;;;;;24.19;49.61;101016.50;7283279;19;153936;-80
2022/06/23 00:30:49;;;;;;;;;;;;;;;24.19;49.90;101002.38;7281494;19;152311;-80
2022/06/23 00:33:23;;;;;;;;;;;;;;;24.21;49.88;101003.69;7289731;19;153976;-80
2022/06/23 00:35:51;;;;;;;;;;;;;;;24.21;49.68;101000.88;7281846;19;152577;-81
2022/06/23 00:38:22;;;;;;;;;;;;;;;24.22;49.68;101001.69;7282718;19;153574;-80
2022/06/23 00:40:49;;;;;;;;;;;;;;;24.21;49.57;101005.72;7283575;19;155236;-80
2022/06/23 00:43:17;;;;;;;;;;;;;;;24.20;49.62;101004.88;7283657;19;151568;-80
2022/06/23 00:45:47;;;;;;;;;;;;;;;24.21;49.91;101002.88;7278581;19;152781;-80
2022/06/23 00:48:24;;;;;;;;;;;;;;;24.20;49.91;100993.59;7282658;19;153598;-79
2022/06/23 00:51:10;;;;;;;;;;;;;;;24.25;50.10;100999.06;7282564;19;153107;-80
2022/06/23 00:53:43;;;;;;;;;;;;;;;24.22;49.76;100990.41;7278144;19;152337;-80
2022/06/23 00:56:34;;;;;;;;;;;;;;;24.21;50.00;100992.41;7285181;19;153506;-81
2022/06/23 00:59:04;;;;;;;;;;;;;;;24.21;50.14;100988.78;7279757;19;151925;-81
2022/06/23 01:01:43;;;;;;;;;;;;;;;24.25;50.01;100979.31;7278814;19;153428;-81
2022/06/23 01:04:27;;;;;;;;;;;;;;;24.24;50.11;100979.63;7281563;19;151827;-80
2022/06/23 01:07:00;;;;;;;;;;;;;;;24.22;50.34;100979.94;7284163;19;153358;-80
2022/06/23 01:09:37;;;;;;;;;;;;;;;24.24;50.30;100979.63;7278706;19;154021;-80
2022/06/23 01:12:13;;;;;;;;;;;;;;;24.24;50.35;100983.28;7284764;19;153046;-80
2022/06/23 01:14:47;;;;;;;;;;;;;;;24.25;50.52;100978.47;7280217;19;155241;-80
2022/06/23 01:17:21;;;;;;;;;;;;;;;24.27;50.54;100976.97;7280383;19;154340;-80
2022/06/23 01:19:50;;;;;;;;;;;;;;;24.28;50.71;100986.25;7288480;19;152200;-80
2022/06/23 01:22:45;;;;;;;;;;;;;;;24.27;50.88;100988.25;7284138;19;153630;-80
2022/06/23 01:25:30;;;;;;;;;;;;;;;24.28;50.96;100987.09;7280960;19;151706;-80
2022/06/23 01:28:08;;;;;;;;;;;;;;;24.30;51.13;100987.56;7281257;19;152396;-80
2022/06/23 01:30:44;;;;;;;;;;;;;;;24.30;51.12;100984.75;7276231;19;152537;-81
2022/06/23 01:33:20;;;;;;;;;;;;;;;24.35;51.26;100969.63;7282310;19;153052;-80
2022/06/23 01:35:53;;;;;;;;;;;;;;;24.34;51.51;100976.47;7278416;19;154751;-80
2022/06/23 01:38:23;;;;;;;;;;;;;;;24.34;51.58;100977.31;7282202;19;153804;-79
2022/06/23 01:40:50;;;;;;;;;;;;;;;24.32;51.95;100979.63;7282821;19;152279;-80
2022/06/23 01:43:17;;;;;;;;;;;;;;;24.32;51.98;100982.44;7288346;19;154734;-80
2022/06/23 01:45:47;;;;;;;;;;;;;;;24.34;52.46;100970.81;7267347;19;152409;-80
2022/06/23 01:48:51;;;;;;;;;;;;;;;24.36;52.10;100969.31;7282484;19;152467;-80
2022/06/23 01:51:04;;;;;;;;;;;;;;;24.35;52.17;100972.44;7279809;19;154384;-80
2022/06/23 01:53:33;;;;;;;;;;;;;;;24.34;52.27;100970.81;7279331;19;152460;-79
2022/06/23 01:56:03;;;;;;;;;;;;;;;24.34;52.57;100974.47;7275114;19;156468;-81
2022/06/23 01:58:37;;;;;;;;;;;;;;;24.33;52.34;100961.50;7280173;19;155794;-80
2022/06/23 02:01:05;;;;;;;;;;;;;;;24.33;52.44;100966.34;7274749;19;152843;-80
2022/06/23 02:03:37;;;;;;;;;;;;;;;24.34;52.94;100973.66;7276892;19;154395;-80
2022/06/23 02:06:16;;;;;;;;;;;;;;;24.34;52.84;100966.00;7287096;19;156748;-80
2022/06/23 02:09:01;;;;;;;;;;;;;;;24.35;52.72;100959.16;7280028;19;153347;-80
2022/06/23 02:11:30;;;;;;;;;;;;;;;24.37;52.72;100964.50;7278629;19;152664;-81
2022/06/23 02:14:03;;;;;;;;;;;;;;;24.41;52.54;100956.19;7280376;19;151767;-80
2022/06/23 02:16:37;;;;;;;;;;;;;;;24.44;52.62;100955.53;7271973;19;152675;-80
2022/06/23 02:19:04;;;;;;;;;;;;;;;24.41;52.14;100945.72;7280070;19;155252;-81
2022/06/23 02:21:43;;;;;;;;;;;;;;;24.39;52.26;100945.22;7280180;19;152816;-81
2022/06/23 02:24:48;;;;;;;;;;;;;;;24.39;52.41;100950.03;7280703;19;152336;-80
2022/06/23 02:27:24;;;;;;;;;;;;;;;24.42;52.72;100943.72;7273439;19;154609;-81
2022/06/23 02:29:58;;;;;;;;;;;;;;;24.39;52.61;100945.22;7283654;19;152333;-81
2022/06/23 02:32:51;;;;;;;;;;;;;;;24.40;52.55;100938.41;7280493;19;154841;-81
2022/06/23 02:35:18;;;;;;;;;;;;;;;24.42;52.57;100941.72;7285413;19;152228;-81
2022/06/23 02:37:55;;;;;;;;;;;;;;;24.40;52.36;100944.03;7285087;19;153085;-80
2022/06/23 02:40:34;;;;;;;;;;;;;;;24.40;52.45;100931.91;7285715;19;153894;-80
2022/06/23 02:43:01;;;;;;;;;;;;;;;24.41;52.32;100942.06;7285215;19;154725;-80
2022/06/23 02:45:33;;;;;;;;;;;;;;;24.35;52.92;100933.75;7282780;19;153751;-80
2022/06/23 02:48:03;;;;;;;;;;;;;;;24.39;52.63;100939.59;7282531;19;153714;-80
2022/06/23 02:50:48;;;;;;;;;;;;;;;24.35;52.84;100933.75;7290010;19;152014;-80
2022/06/23 02:53:26;;;;;;;;;;;;;;;24.35;53.04;100941.38;7283456;19;153817;-80
2022/06/23 02:56:11;;;;;;;;;;;;;;;24.34;52.87;100929.28;7282713;19;152519;-80
2022/06/23 02:58:38;;;;;;;;;;;;;;;24.38;53.28;100931.44;7287776;19;152942;-80
2022/06/23 03:01:21;;;;;;;;;;;;;;;24.41;53.27;100925.09;7280144;19;153578;-80
2022/06/23 03:03:51;;;;;;;;;;;;;;;24.36;53.29;100921.28;7284249;19;152188;-80
2022/06/23 03:06:23;;;;;;;;;;;;;;;24.39;53.23;100925.47;7286537;19;153975;-80
2022/06/23 03:08:59;;;;;;;;;;;;;;;24.39;53.50;100921.81;7282532;19;153635;-80
2022/06/23 03:14:23;;;;;;;;;;;;;;;24.37;53.42;100910.84;7293869;19;153174;-81
2022/06/23 03:16:53;;;;;;;;;;;;;;;24.40;53.67;100912.16;7278873;19;152283;-81
2022/06/23 03:19:26;;;;;;;;;;;;;;;24.41;53.76;100911.81;7283762;19;152643;-80
2022/06/23 03:22:05;;;;;;;;;;;;;;;24.41;53.77;100909.00;7283250;19;152920;-81
2022/06/23 03:24:41;;;;;;;;;;;;;;;24.44;54.01;100901.84;7284079;19;151818;-81
2022/06/23 03:27:19;;;;;;;;;;;;;;;24.48;54.12;100903.69;7286012;19;152415;-81
2022/06/23 03:29:58;;;;;;;;;;;;;;;24.48;53.47;100900.00;7282161;19;154503;-83
2022/06/23 03:32:28;;;;;;;;;;;;;;;24.51;53.62;100904.97;7281758;19;152333;-82
2022/06/23 03:34:59;;;;;;;;;;;;;;;24.46;53.61;100891.88;7285105;19;153928;-83
2022/06/23 03:37:46;;;;;;;;;;;;;;;24.47;54.35;100904.84;7293105;19;153007;-83
2022/06/23 03:43:14;;;;;;;;;;;;;;;24.46;53.90;100914.47;7284319;19;155640;-83
2022/06/23 03:45:47;;;;;;;;;;;;;;;24.46;53.94;100910.81;7282820;19;152262;-83
2022/06/23 03:48:25;;;;;;;;;;;;;;;24.43;54.11;100906.69;7285979;19;155375;-83
2022/06/23 03:50:59;;;;;;;;;;;;;;;24.43;54.14;100901.03;7284280;19;154425;-83
2022/06/23 03:53:39;;;;;;;;;;;;;;;24.41;53.96;100891.22;7286614;19;152011;-83
2022/06/23 03:56:17;;;;;;;;;;;;;;;24.41;54.35;100903.34;7281444;19;153036;-83
2022/06/23 03:58:50;;;;;;;;;;;;;;;24.43;54.19;100901.03;7283245;19;153211;-83
2022/06/23 04:01:21;;;;;;;;;;;;;;;24.44;54.11;100908.31;7289079;19;154069;-84
2022/06/23 04:04:23;;;;;;;;;;;;;;;24.44;53.78;100902.66;7283050;19;153528;-83
2022/06/23 04:06:51;;;;;;;;;;;;;;;24.41;54.01;100900.53;7281476;19;152258;-83
2022/06/23 04:09:24;;;;;;;;;;;;;;;24.41;54.02;100905.34;7281763;19;153239;-83
2022/06/23 04:11:51;;;;;;;;;;;;;;;24.38;53.99;100898.38;7281496;19;153212;-82
2022/06/23 04:14:21;;;;;;;;;;;;;;;24.40;53.85;100904.50;7283656;19;152202;-82
2022/06/23 04:16:52;;;;;;;;;;;;;;;24.45;54.52;100897.84;7279130;19;154029;-83
2022/06/23 04:19:23;;;;;;;;;;;;;;;24.49;53.74;100893.19;7281724;19;154700;-83
2022/06/23 04:21:57;;;;;;;;;;;;;;;24.52;53.82;100890.53;7283543;19;156057;-83
2022/06/23 04:24:25;;;;;;;;;;;;;;;24.47;53.84;100893.53;7290428;19;152839;-83
2022/06/23 04:26:54;;;;;;;;;;;;;;;24.49;53.93;100884.69;7284883;19;152165;-83
2022/06/23 04:29:30;;;;;;;;;;;;;;;24.46;53.81;100893.84;7283578;19;156268;-82
2022/06/23 04:32:01;;;;;;;;;;;;;;;24.44;53.81;100902.66;7281398;19;153785;-82
2022/06/23 04:34:34;;;;;;;;;;;;;;;24.43;54.16;100898.19;7284407;19;151868;-83
2022/06/23 04:37:01;;;;;;;;;;;;;;;24.43;54.40;100891.72;7280524;19;153713;-83
2022/06/23 04:39:27;;;;;;;;;;;;;;;24.50;54.34;100892.03;7280482;19;156455;-83
2022/06/23 04:42:00;;;;;;;;;;;;;;;24.56;53.87;100883.03;7283228;19;152159;-83
2022/06/23 04:44:29;;;;;;;;;;;;;;;24.58;54.12;100893.97;7280865;19;152682;-83
2022/06/23 04:46:58;;;;;;;;;;;;;;;24.46;54.33;100886.22;7285128;19;151744;-82
2022/06/23 04:49:27;;;;;;;;;;;;;;;24.48;53.98;100888.72;7279776;19;153601;-82
2022/06/23 04:52:13;;;;;;;;;;;;;;;24.45;53.92;100887.38;7281484;19;152416;-82
2022/06/23 04:54:49;;;;;;;;;;;;;;;24.47;53.94;100878.59;7280867;19;152313;-82
2022/06/23 04:57:22;;;;;;;;;;;;;;;24.48;54.03;100868.94;7279187;19;152744;-81
2022/06/23 04:59:53;;;;;;;;;;;;;;;24.52;53.85;100881.22;7278437;19;153688;-82
2022/06/23 05:02:40;;;;;;;;;;;;;;;24.50;54.24;100886.38;7280940;19;151892;-81
2022/06/23 05:05:09;;;;;;;;;;;;;;;24.53;54.06;100886.53;7279257;19;152816;-81
2022/06/23 05:07:45;;;;;;;;;;;;;;;24.53;53.36;100882.88;7281846;19;153296;-82
2022/06/23 05:10:18;;;;;;;;;;;;;;;24.49;53.93;100876.22;7281532;19;153912;-82
2022/06/23 05:12:48;;;;;;;;;;;;;;;24.50;53.55;100878.72;7278614;19;154191;-83
2022/06/23 05:15:18;;;;;;;;;;;;;;;24.52;53.67;100872.75;7280539;19;152370;-82
2022/06/23 05:17:57;;;;;;;;;;;;;;;24.53;54.00;100872.38;7277843;19;152582;-82
2022/06/23 05:20:34;;;;;;;;;;;;;;;24.55;53.23;100877.72;7280088;19;154557;-83
2022/06/23 05:23:02;;;;;;;;;;;;;;;24.50;53.34;100875.06;7281463;19;152766;-82
2022/06/23 05:25:43;;;;;;;;;;;;;;;24.55;53.30;100880.53;7282711;19;152729;-83
2022/06/23 05:28:15;;;;;;;;;;;;;;;24.54;53.30;100876.06;7279279;19;154076;-83
2022/06/23 05:30:48;;;;;;;;;;;;;;;24.49;53.28;100867.75;7283081;19;152322;-82
2022/06/23 05:33:21;;;;;;;;;;;;;;;24.52;53.50;100869.94;7277079;19;152817;-83
2022/06/23 05:36:17;;;;;;;;;;;;;;;24.52;53.02;100875.56;7279288;19;153489;-83
2022/06/23 05:38:58;;;;;;;;;;;;;;;24.44;53.27;100873.63;7276860;19;153215;-84
2022/06/23 05:41:31;;;;;;;;;;;;;;;24.45;53.33;100869.59;7280363;19;153917;-82
2022/06/23 05:43:58;;;;;;;;;;;;;;;24.53;53.53;100878.03;7280741;19;151886;-83
2022/06/23 05:46:27;;;;;;;;;;;;;;;24.52;53.08;100867.94;7277992;19;155053;-84
2022/06/23 05:48:55;;;;;;;;;;;;;;;24.48;53.13;100874.59;7275964;19;154634;-82
2022/06/23 05:51:27;;;;;;;;;;;;;;;24.44;53.67;100865.94;7280972;19;152547;-83
2022/06/23 05:53:53;;;;;;;;;;;;;;;24.44;53.49;100867.97;7287196;19;153714;-82
2022/06/23 05:56:30;;;;;;;;;;;;;;;24.43;53.39;100861.47;7278460;19;151686;-83
2022/06/23 05:58:57;;;;;;;;;;;;;;;24.47;53.48;100864.47;7279808;19;153328;-82
2022/06/23 06:01:36;;;;;;;;;;;;;;;24.47;52.91;100867.28;7277570;19;152601;-82
2022/06/23 06:04:06;;;;;;;;;;;;;;;24.48;53.27;100875.44;7276041;19;152146;-82
2022/06/23 06:06:33;;;;;;;;;;;;;;;24.46;53.27;100871.25;7277811;19;153040;-83
2022/06/23 06:11:50;;;;;;;;;;;;;;;24.39;53.61;100868.97;7281502;19;151607;-82
2022/06/23 06:14:18;;;;;;;;;;;;;;;24.40;53.82;100861.31;7279472;19;154075;-82
2022/06/23 06:16:47;;;;;;;;;;;;;;;24.43;53.59;100850.19;7282218;19;155361;-84
2022/06/23 06:19:17;;;;;;;;;;;;;;;24.40;53.34;100852.84;7278531;19;152305;-85
2022/06/23 06:21:46;;;;;;;;;;;;;;;24.42;52.37;100848.53;7278557;19;153310;-82
2022/06/23 06:24:17;;;;;;;;;;;;;;;24.38;50.97;100855.19;7278778;19;152048;-83
2022/06/23 06:26:46;;;;;;;;;;;;;;;24.35;51.38;100853.84;7278868;19;156022;-82
2022/06/23 06:29:18;;;;;;;;;;;;;;;24.38;51.15;100852.34;7278500;19;154295;-83
2022/06/23 06:31:47;;;;;;;;;;;;;;;24.38;50.83;100858.00;7278412;19;152307;-83
2022/06/23 06:34:18;;;;;;;;;;;;;;;24.35;50.47;100849.03;7277180;19;152664;-83
2022/06/23 06:36:47;;;;;;;;;;;;;;;24.24;49.07;100850.56;7274400;19;155235;-77
2022/06/23 06:39:17;;;;;;;;;;;;;;;24.22;47.97;100858.53;7286168;19;151766;-77
2022/06/23 06:42:02;;;;;;;;;;;;;;;24.07;47.72;100859.06;7276336;19;153837;-77
2022/06/23 06:44:34;;;;;;;;;;;;;;;24.00;48.87;100861.53;7277714;19;152193;-77
2022/06/23 06:47:01;;;;;;;;;;;;;;;23.96;47.75;100859.72;7274626;19;153197;-78
2022/06/23 06:49:29;;;;;;;;;;;;;;;23.92;47.89;100856.75;7276436;19;154420;-78
2022/06/23 06:51:57;;;;;;;;;;;;;;;23.88;47.51;100872.69;7279920;19;152374;-78
2022/06/23 06:54:27;;;;;;;;;;;;;;;23.79;47.61;100878.34;7276001;19;152371;-78
2022/06/23 06:57:01;;;;;;;;;;;;;;;23.75;47.74;100870.88;7274989;19;152459;-78
2022/06/23 06:59:36;;;;;;;;;;;;;;;23.72;47.86;100879.97;7283007;19;152464;-78
2022/06/23 07:02:18;;;;;;;;;;;;;;;23.62;47.91;100877.50;7276153;19;153946;-77
2022/06/23 07:04:52;;;;;;;;;;;;;;;23.57;48.32;100872.03;7274938;19;152570;-78
2022/06/23 07:07:20;;;;;;;;;;;;;;;23.49;48.64;100879.28;7278231;19;152608;-78
2022/06/23 07:10:06;;;;;;;;;;;;;;;23.41;48.59;100880.09;7273933;19;154113;-78
2022/06/23 07:12:39;;;;;;;;;;;;;;;23.41;48.44;100872.47;7276253;19;152065;-78
2022/06/23 07:15:05;;;;;;;;;;;;;;;23.33;49.09;100870.47;7273549;19;153474;-76
2022/06/23 07:17:37;;;;;;;;;;;;;;;23.29;49.03;100872.28;7276371;19;154003;-76
2022/06/23 07:20:14;;;;;;;;;;;;;;;23.30;49.18;100870.31;7285176;19;152888;-75
2022/06/23 07:22:52;;;;;;;;;;;;;;;23.25;49.29;100870.47;7290500;19;152835;-77
2022/06/23 07:25:20;;;;;;;;;;;;;;;23.22;49.96;100883.19;7284961;19;152438;-79
2022/06/23 07:27:50;;;;;;;;;;;;;;;23.25;50.00;100885.38;7285499;19;152659;-76
2022/06/23 07:30:18;;;;;;;;;;;;;;;23.26;51.21;100877.75;7282050;19;153205;-76
2022/06/23 07:32:54;;;;;;;;;;;;;;;23.27;51.32;100873.75;7282742;19;152091;-76
2022/06/23 07:35:39;;;;;;;;;;;;;;;23.30;51.08;100878.75;7284257;19;152896;-79
2022/06/23 07:38:18;;;;;;;;;;;;;;;23.30;50.77;100878.75;7277944;19;154432;-78
2022/06/23 07:41:07;;;;;;;;;;;;;;;23.30;51.03;100882.41;7284443;19;152462;-76
2022/06/23 07:43:54;;;;;;;;;;;;;;;23.31;50.89;100886.03;7284471;19;153373;-77
2022/06/23 07:46:20;;;;;;;;;;;;;;;23.29;50.91;100883.56;7285159;19;155205;-76
2022/06/23 07:48:47;;;;;;;;;;;;;;;23.28;50.74;100889.53;7280462;19;154791;-76
2022/06/23 07:51:14;;;;;;;;;;;;;;;23.30;50.99;100881.59;7281354;19;155181;-76
2022/06/23 07:53:43;;;;;;;;;;;;;;;23.29;50.51;100875.09;7284932;19;152804;-76
2022/06/23 07:56:15;;;;;;;;;;;;;;;23.31;50.69;100874.75;7285329;19;153237;-77
2022/06/23 07:58:42;;;;;;;;;;;;;;;23.30;50.78;100876.78;7279881;19;153231;-76
2022/06/23 08:01:12;;;;;;;;;;;;;;;23.29;50.48;100880.75;7279183;19;152584;-76
2022/06/23 08:03:42;;;;;;;;;;;;;;;23.32;50.52;100870.78;7280346;19;153766;-77
2022/06/23 08:06:12;;;;;;;;;;;;;;;23.32;50.36;100870.78;7283736;19;153543;-77
2022/06/23 08:08:51;;;;;;;;;;;;;;;23.31;50.60;100858.69;7291788;19;152438;-76
2022/06/23 08:14:35;;;;;;;;;;;;;;;23.33;50.63;100861.19;7280926;19;152460;-76
2022/06/23 08:17:05;;;;;;;;;;;;;;;23.33;50.69;100867.66;7281441;19;153501;-77
2022/06/23 08:19:32;;;;;;;;;;;;;;;23.33;50.90;100855.53;7277751;19;153946;-77
2022/06/23 08:22:25;;;;;;;;;;;;;;;23.34;50.99;100871.31;7283860;19;152357;-76
2022/06/23 08:25:00;;;;;;;;;;;;;;;23.34;51.01;100860.84;7280691;19;153572;-76
2022/06/23 08:27:48;;;;;;;;;;;;;;;23.33;51.10;100853.56;7281019;19;152420;-75
2022/06/23 08:30:16;;;;;;;;;;;;;;;23.35;51.17;100865.31;7281048;19;152317;-75
2022/06/23 08:32:48;;;;;;;;;;;;;;;23.32;51.32;100846.25;7287739;19;154377;-75
2022/06/23 08:35:18;;;;;;;;;;;;;;;23.34;51.62;100846.75;7282782;19;156906;-75
2022/06/23 08:37:49;;;;;;;;;;;;;;;23.33;51.83;100845.09;7281211;19;153284;-75
2022/06/23 08:40:19;;;;;;;;;;;;;;;23.34;51.31;100835.47;7282424;19;154212;-77
2022/06/23 08:42:57;;;;;;;;;;;;;;;23.35;51.42;100830.66;7284411;19;152272;-76
2022/06/23 08:45:59;;;;;;;;;;;;;;;23.34;51.79;100829.00;7281145;19;152922;-74
2022/06/23 08:48:33;;;;;;;;;;;;;;;23.33;51.80;100811.25;7276004;19;153732;-74
2022/06/23 08:51:09;;;;;;;;;;;;;;;23.35;52.04;100808.09;7281492;19;152028;-75
2022/06/23 08:53:48;;;;;;;;;;;;;;;23.34;51.79;100807.28;7282464;19;152624;-75
2022/06/23 08:56:19;;;;;;;;;;;;;;;23.35;52.14;100811.75;7288124;19;153467;-75
2022/06/23 08:58:59;;;;;;;;;;;;;;;23.35;52.25;100811.75;7280134;19;152957;-75
2022/06/23 09:01:31;;;;;;;;;;;;;;;23.36;52.25;100819.03;7276830;19;153494;-75
2022/06/23 09:04:05;;;;;;;;;;;;;;;23.36;52.25;100806.94;7279836;19;151954;-75
2022/06/23 09:06:49;;;;;;;;;;;;;;;23.36;52.38;100804.94;7281401;19;152659;-75
2022/06/23 09:09:28;;;;;;;;;;;;;;;23.38;52.50;100801.81;7281357;19;154136;-75
2022/06/23 09:12:13;;;;;;;;;;;;;;;23.39;52.05;100795.81;7283557;19;152182;-76
2022/06/23 09:14:40;;;;;;;;;;;;;;;23.40;52.29;100803.13;7281792;19;153677;-75
2022/06/23 09:17:10;;;;;;;;;;;;;;;23.42;52.61;100798.00;7286910;19;158023;-75
2022/06/23 09:19:55;;;;;;;;;;;;;;;23.42;52.25;100806.44;7279593;19;153050;-75
2022/06/23 09:22:29;;;;;;;;;;;;;;;23.42;52.78;100799.97;7281468;19;153333;-76
2022/06/23 09:25:05;;;;;;;;;;;;;;;23.42;52.54;100805.63;7278395;19;152605;-75
2022/06/23 09:27:39;;;;;;;;;;;;;;;23.42;52.38;100799.97;7282386;19;152617;-75
2022/06/23 09:30:12;;;;;;;;;;;;;;;23.42;52.83;100794.34;7279145;19;153271;-75
2022/06/23 09:32:47;;;;;;;;;;;;;;;23.42;53.01;100789.53;7280252;19;152054;-76
2022/06/23 09:35:23;;;;;;;;;;;;;;;23.44;52.70;100797.66;7280479;19;153317;-75
2022/06/23 09:37:58;;;;;;;;;;;;;;;23.44;52.66;100794.84;7279716;19;153647;-76
2022/06/23 09:40:31;;;;;;;;;;;;;;;23.45;52.49;100785.25;7285302;19;152541;-76
2022/06/23 09:43:10;;;;;;;;;;;;;;;23.47;52.71;100775.31;7277604;19;153694;-76
2022/06/23 09:45:46;;;;;;;;;;;;;;;23.46;52.53;100770.81;7279343;19;152654;-76
2022/06/23 09:48:33;;;;;;;;;;;;;;;23.54;52.29;100771.13;7276896;19;153543;-76
2022/06/23 09:51:29;;;;;;;;;;;;;;;23.58;51.98;100770.13;7278908;19;154354;-76
2022/06/23 09:53:55;;;;;;;;;;;;;;;23.63;52.05;100772.78;7280060;19;151826;-76
2022/06/23 09:56:40;;;;;;;;;;;;;;;23.67;52.11;100761.66;7233131;19;153348;-76
2022/06/23 09:59:13;;;;;;;;;;;;;;;23.72;51.86;100767.13;7271517;19;153922;-76
2022/06/23 10:01:40;;;;;;;;;;;;;;;23.74;51.84;100771.28;7270534;19;153387;-77
2022/06/23 10:04:13;;;;;;;;;;;;;;;23.74;51.77;100767.63;7279902;19;152717;-76
2022/06/23 10:06:46;;;;;;;;;;;;;;;23.74;52.00;100773.28;7277331;19;152606;-77
2022/06/23 10:09:21;;;;;;;;;;;;;;;23.76;51.81;100768.09;7278105;19;153454;-76
2022/06/23 10:12:06;;;;;;;;;;;;;;;23.80;51.63;100764.28;7278349;19;152892;-76
2022/06/23 10:14:35;;;;;;;;;;;;;;;23.85;51.52;100771.75;7277031;19;152029;-76
2022/06/23 10:17:05;;;;;;;;;;;;;;;23.84;51.58;100767.28;7277794;19;153554;-76
2022/06/23 10:19:51;;;;;;;;;;;;;;;23.86;51.48;100764.94;7269592;19;153878;-76
2022/06/23 10:22:28;;;;;;;;;;;;;;;23.81;51.07;100760.31;7273929;19;153463;-76
2022/06/23 10:24:55;;;;;;;;;;;;;;;23.83;51.48;100762.81;7276148;19;153343;-77
2022/06/23 10:27:31;;;;;;;;;;;;;;;23.83;51.34;100752.34;7268778;19;154667;-77
2022/06/23 10:30:04;;;;;;;;;;;;;;;23.81;51.21;100746.19;7273078;19;153217;-77
2022/06/23 10:32:57;;;;;;;;;;;;;;;23.80;51.21;100753.00;7275871;19;155052;-77
2022/06/23 10:35:49;;;;;;;;;;;;;;;23.80;51.19;100752.19;7279908;19;152495;-76
2022/06/23 10:38:25;;;;;;;;;;;;;;;23.78;51.55;100746.03;7275844;19;152835;-77
2022/06/23 10:41:12;;;;;;;;;;;;;;;23.78;51.24;100749.69;7275717;19;154832;-76
2022/06/23 10:43:51;;;;;;;;;;;;;;;23.77;51.45;100735.91;7276143;19;152166;-77
2022/06/23 10:46:44;;;;;;;;;;;;;;;23.76;51.56;100734.25;7276146;19;152675;-77
2022/06/23 10:49:17;;;;;;;;;;;;;;;23.78;51.31;100731.94;7271056;19;154576;-77
2022/06/23 10:51:54;;;;;;;;;;;;;;;23.81;50.96;100722.78;7290413;19;152033;-76
2022/06/23 10:54:27;;;;;;;;;;;;;;;23.82;50.90;100727.28;7283934;19;154748;-76
2022/06/23 10:56:54;;;;;;;;;;;;;;;23.78;50.94;100715.84;7284273;19;152428;-77
2022/06/23 10:59:30;;;;;;;;;;;;;;;23.79;50.95;100711.03;7279915;19;152933;-77
2022/06/23 11:02:07;;;;;;;;;;;;;;;23.79;51.23;100716.69;7283140;19;154101;-77
2022/06/23 11:04:48;;;;;;;;;;;;;;;23.76;51.52;100717.31;7283289;19;152192;-77
2022/06/23 11:07:23;;;;;;;;;;;;;;;23.74;51.34;100714.84;7285801;19;153011;-77
2022/06/23 11:09:50;;;;;;;;;;;;;;;23.75;51.31;100721.34;7283236;19;153334;-76
2022/06/23 11:12:35;;;;;;;;;;;;;;;23.72;51.15;100720.00;7285603;19;151925;-76
2022/06/23 11:15:14;;;;;;;;;;;;;;;23.73;51.19;100716.00;7290110;19;154709;-77
2022/06/23 11:17:52;;;;;;;;;;;;;;;23.74;50.96;100711.22;7284611;19;152784;-77
2022/06/23 11:20:28;;;;;;;;;;;;;;;23.72;51.18;100710.69;7284889;19;156403;-77
2022/06/23 11:22:56;;;;;;;;;;;;;;;23.72;51.44;100705.06;7283013;19;153555;-77
2022/06/23 11:25:34;;;;;;;;;;;;;;;23.71;51.14;100707.03;7285682;19;153813;-77
2022/06/23 11:28:10;;;;;;;;;;;;;;;23.71;51.26;100709.88;7283498;19;153471;-77
2022/06/23 11:30:46;;;;;;;;;;;;;;;23.70;51.46;100705.41;7279811;19;153779;-76
2022/06/23 11:33:27;;;;;;;;;;;;;;;23.70;51.22;100705.41;7282754;19;152239;-76
2022/06/23 11:36:10;;;;;;;;;;;;;;;23.70;51.34;100698.94;7290829;19;152679;-76
2022/06/23 11:39:07;;;;;;;;;;;;;;;23.70;51.26;100693.31;7283044;19;152224;-76
2022/06/23 11:41:33;;;;;;;;;;;;;;;23.69;51.38;100686.00;7285200;19;153614;-76
2022/06/23 11:44:03;;;;;;;;;;;;;;;23.70;51.15;100682.00;7279010;19;153868;-76
2022/06/23 11:46:38;;;;;;;;;;;;;;;23.69;51.10;100674.72;7281343;19;153922;-76
2022/06/23 11:49:23;;;;;;;;;;;;;;;23.69;51.34;100680.34;7280913;19;153453;-75
2022/06/23 11:51:58;;;;;;;;;;;;;;;23.69;51.17;100674.72;7284529;19;153265;-76
2022/06/23 11:54:45;;;;;;;;;;;;;;;23.70;51.39;100667.91;7281873;19;152840;-77
2022/06/23 11:57:21;;;;;;;;;;;;;;;23.71;51.11;100670.38;7282664;19;153078;-76
2022/06/23 11:59:57;;;;;;;;;;;;;;;23.69;50.94;100667.06;7282188;19;155055;-75
2022/06/23 12:02:44;;;;;;;;;;;;;;;23.72;50.95;100666.41;7279219;19;154914;-75
2022/06/23 12:05:26;;;;;;;;;;;;;;;23.76;51.01;100660.91;7279154;19;152589;-77
2022/06/23 12:07:59;;;;;;;;;;;;;;;23.76;50.71;100673.00;7281472;19;151825;-75
2022/06/23 12:10:28;;;;;;;;;;;;;;;23.79;50.74;100671.53;7281354;19;152473;-75
2022/06/23 12:12:57;;;;;;;;;;;;;;;23.79;50.62;100665.88;7282176;19;154037;-75
2022/06/23 12:15:29;;;;;;;;;;;;;;;23.79;50.64;100660.25;7282058;19;152357;-76
2022/06/23 12:18:18;;;;;;;;;;;;;;;23.79;51.01;100672.38;7279774;19;154177;-76
2022/06/23 12:20:51;;;;;;;;;;;;;;;23.80;50.78;100667.56;7278985;19;152728;-77
2022/06/23 12:23:22;;;;;;;;;;;;;;;23.80;50.55;100662.72;7287464;19;152148;-76
2022/06/23 12:26:10;;;;;;;;;;;;;;;23.81;50.78;100666.34;7279876;19;152596;-77
2022/06/23 12:28:48;;;;;;;;;;;;;;;23.82;50.75;100670.84;7282928;19;152009;-76
2022/06/23 12:31:17;;;;;;;;;;;;;;;23.81;50.57;100653.09;7280360;19;152861;-76
2022/06/23 12:33:54;;;;;;;;;;;;;;;23.84;50.48;100657.25;7279094;19;155117;-77
2022/06/23 12:36:33;;;;;;;;;;;;;;;23.83;50.58;100656.41;7282870;19;152555;-76
2022/06/23 12:39:07;;;;;;;;;;;;;;;23.83;50.38;100653.59;7280065;19;152857;-77
2022/06/23 12:41:43;;;;;;;;;;;;;;;23.84;50.73;100645.94;7280170;19;153897;-77
2022/06/23 12:44:28;;;;;;;;;;;;;;;23.87;50.30;100653.72;7283424;19;153080;-76
2022/06/23 12:46:55;;;;;;;;;;;;;;;23.86;50.31;100654.88;7288800;19;157243;-77
2022/06/23 12:49:30;;;;;;;;;;;;;;;23.89;50.47;100648.59;7281647;19;152862;-77
2022/06/23 12:52:19;;;;;;;;;;;;;;;23.87;50.57;100648.91;7284361;19;152493;-76
2022/06/23 12:54:46;;;;;;;;;;;;;;;23.86;50.36;100641.63;7280493;19;154099;-76
2022/06/23 12:57:36;;;;;;;;;;;;;;;23.85;50.82;100651.25;7282877;19;152317;-76
2022/06/23 13:00:17;;;;;;;;;;;;;;;23.83;50.44;100647.94;7270038;19;152329;-75
2022/06/23 13:02:48;;;;;;;;;;;;;;;23.83;50.60;100650.75;7273264;19;154073;-76
2022/06/23 13:05:18;;;;;;;;;;;;;;;23.83;50.47;100652.75;7276199;19;152418;-77
2022/06/23 13:07:45;;;;;;;;;;;;;;;23.85;50.80;100641.94;7283892;19;152668;-77
2022/06/23 13:10:20;;;;;;;;;;;;;;;23.84;50.41;100637.50;7287513;19;153223;-75
2022/06/23 13:13:10;;;;;;;;;;;;;;;23.82;50.55;100634.16;7282218;19;152632;-76
2022/06/23 13:15:56;;;;;;;;;;;;;;;23.85;50.55;100637.13;7274838;19;155340;-76
2022/06/23 13:18:23;;;;;;;;;;;;;;;23.83;50.25;100635.81;7278833;19;151853;-76